Windsor, Missouri
Current Conditions -  °F | °C
As of 1:58 PM on Friday 31 Oct 2014 (Local Time) from KSZL Reporting Station
Clear Clear  
Wind Chill: 36°   Ceiling: Unl
Heat Index: 44°   Visibility: 8mi
Dew Point: 19°   Wind: 17mph
Humidity: 36%   Direction: 10°N
Pressure: 30.42"   Gusts: 21mph
Location:  38.53°N, 93.52°W
Report Text: KSZL 311858Z AUTO 01015G18KT 350V050 8SM CLR 07/M07 A3042 RMK AO2 SLP307 T00671075 $
Loading
Personal Weather Stations






























Interactive Weather Map
Tropical Storm Tracking
New forecast layout! Learn more

10-Day Weather Forecast

Advertisements
Track Severe Weather on mobile